createdAt,value
2022-08-16T00:01:04.106Z,52.75
2022-08-16T00:03:37.704Z,52.85
2022-08-16T00:06:04.960Z,52.63
2022-08-16T00:08:36.611Z,52.68
2022-08-16T00:11:08.724Z,52.70
2022-08-16T00:13:53.418Z,52.36
2022-08-16T00:17:00.657Z,52.98
2022-08-16T00:19:24.532Z,52.88
2022-08-16T00:22:01.443Z,52.70
2022-08-16T00:24:32.615Z,52.68
2022-08-16T00:27:02.592Z,52.63
2022-08-16T00:29:30.279Z,52.49
2022-08-16T00:32:05.390Z,53.12
2022-08-16T00:34:43.744Z,53.09
2022-08-16T00:37:17.152Z,52.82
2022-08-16T00:39:47.340Z,52.70
2022-08-16T00:42:30.444Z,52.80
2022-08-16T00:45:25.040Z,52.83
2022-08-16T00:47:54.661Z,52.99
2022-08-16T00:50:35.809Z,53.72
2022-08-16T00:53:06.925Z,53.18
2022-08-16T00:55:39.030Z,52.88
2022-08-16T00:58:12.982Z,53.11
2022-08-16T01:00:53.974Z,52.87
2022-08-16T01:03:30.419Z,52.73
2022-08-16T01:06:39.752Z,52.88
2022-08-16T01:08:55.702Z,52.85
2022-08-16T01:11:29.422Z,53.04
2022-08-16T01:14:07.255Z,53.75
2022-08-16T01:16:35.304Z,53.27
2022-08-16T01:19:30.782Z,52.77
2022-08-16T01:22:47.467Z,52.91
2022-08-16T01:25:10.219Z,53.02
2022-08-16T01:27:46.779Z,52.82
2022-08-16T01:30:21.913Z,52.71
2022-08-16T01:33:02.316Z,52.63
2022-08-16T01:35:46.002Z,52.72
2022-08-16T01:38:20.000Z,52.53
2022-08-16T01:40:49.405Z,53.13
2022-08-16T01:43:16.533Z,52.50
2022-08-16T01:45:43.927Z,52.59
2022-08-16T01:48:19.926Z,52.48
2022-08-16T01:51:08.857Z,52.38
2022-08-16T01:53:40.530Z,52.68
2022-08-16T01:56:08.381Z,52.56
2022-08-16T01:58:50.872Z,53.11
2022-08-16T02:01:18.375Z,52.80
2022-08-16T02:03:45.201Z,52.84
2022-08-16T02:06:26.041Z,52.74
2022-08-16T02:09:05.164Z,53.17
2022-08-16T02:11:48.871Z,52.81
2022-08-16T02:14:22.396Z,52.64
2022-08-16T02:16:54.943Z,53.32
2022-08-16T02:19:58.882Z,53.13
2022-08-16T02:22:34.909Z,52.69
2022-08-16T02:25:10.445Z,53.21
2022-08-16T02:27:43.625Z,52.91
2022-08-16T02:30:42.528Z,53.25
2022-08-16T02:33:05.162Z,53.06
2022-08-16T02:35:34.036Z,52.88
2022-08-16T02:38:08.883Z,52.99
2022-08-16T02:40:37.938Z,52.99
2022-08-16T02:43:04.944Z,53.21
2022-08-16T02:45:32.337Z,52.62
2022-08-16T02:48:01.827Z,52.84
2022-08-16T02:51:03.016Z,53.15
2022-08-16T02:53:35.164Z,53.10
2022-08-16T02:56:02.527Z,53.22
2022-08-16T02:58:31.469Z,53.10
2022-08-16T03:00:59.465Z,53.29
2022-08-16T03:04:40.950Z,53.10
2022-08-16T03:06:42.393Z,53.06
2022-08-16T03:09:11.833Z,53.24
2022-08-16T03:11:40.904Z,53.28
2022-08-16T03:14:08.393Z,53.52
2022-08-16T03:16:38.336Z,53.29
2022-08-16T03:19:09.317Z,53.46
2022-08-16T03:21:38.224Z,53.45
2022-08-16T03:24:28.742Z,53.64
2022-08-16T03:27:01.764Z,53.53
2022-08-16T03:29:33.656Z,53.56
2022-08-16T03:32:02.263Z,53.60
2022-08-16T03:34:33.149Z,53.43
2022-08-16T03:37:00.661Z,53.48
2022-08-16T03:39:28.730Z,53.39
2022-08-16T03:41:59.732Z,53.57
2022-08-16T03:44:44.571Z,53.47
2022-08-16T03:47:19.273Z,53.55
2022-08-16T03:49:51.704Z,53.72
2022-08-16T03:52:23.458Z,53.78
2022-08-16T03:54:59.229Z,53.45
2022-08-16T03:57:32.162Z,53.58
2022-08-16T04:00:35.464Z,53.47
2022-08-16T04:03:07.102Z,53.78
2022-08-16T04:05:43.958Z,53.79
2022-08-16T04:08:24.147Z,53.62
2022-08-16T04:10:54.191Z,53.71
2022-08-16T04:14:01.747Z,53.70
2022-08-16T04:16:27.610Z,53.81
2022-08-16T04:19:01.273Z,53.57
2022-08-16T04:21:35.595Z,54.08
2022-08-16T04:24:03.684Z,53.75
2022-08-16T04:26:35.216Z,53.69
2022-08-16T04:29:16.761Z,53.85
2022-08-16T04:31:56.810Z,53.72
2022-08-16T04:34:35.750Z,53.72
2022-08-16T04:37:05.190Z,54.55
2022-08-16T04:39:46.167Z,53.78
2022-08-16T04:42:17.475Z,53.84
2022-08-16T04:44:54.590Z,53.73
2022-08-16T04:47:33.221Z,54.20
2022-08-16T04:50:10.350Z,53.97
2022-08-16T04:52:38.947Z,54.06
2022-08-16T04:55:22.813Z,54.04
2022-08-16T04:58:45.044Z,53.81
2022-08-16T05:00:52.361Z,54.00
2022-08-16T05:03:19.596Z,53.92
2022-08-16T05:05:59.065Z,54.18
2022-08-16T05:08:32.446Z,54.18
2022-08-16T05:11:05.613Z,54.26
2022-08-16T05:13:40.784Z,54.05
2022-08-16T05:16:21.672Z,54.03
2022-08-16T05:18:53.098Z,54.06
2022-08-16T05:21:22.204Z,53.95
2022-08-16T05:23:58.653Z,53.69
2022-08-16T05:26:30.407Z,53.53
2022-08-16T05:28:58.821Z,53.86
2022-08-16T05:31:30.412Z,53.75
2022-08-16T05:34:00.492Z,53.63
2022-08-16T05:36:36.528Z,53.39
2022-08-16T05:39:08.859Z,53.36
2022-08-16T05:41:44.994Z,53.39
2022-08-16T05:44:23.235Z,53.03
2022-08-16T05:47:00.073Z,53.09
2022-08-16T05:49:38.789Z,52.98
2022-08-16T05:52:11.302Z,52.83
2022-08-16T05:54:47.643Z,52.85
2022-08-16T05:57:18.199Z,52.53
2022-08-16T05:59:50.283Z,52.51
2022-08-16T06:02:18.579Z,52.23
2022-08-16T06:04:46.081Z,52.24
2022-08-16T06:07:25.223Z,52.30
2022-08-16T06:09:58.141Z,52.44
2022-08-16T06:12:29.350Z,52.21
2022-08-16T06:15:16.758Z,51.89
2022-08-16T06:17:45.164Z,51.83
2022-08-16T06:20:23.526Z,51.84
2022-08-16T06:22:58.465Z,52.13
2022-08-16T06:25:36.597Z,51.98
2022-08-16T06:28:10.188Z,51.80
2022-08-16T06:30:43.350Z,51.89
2022-08-16T06:33:12.443Z,51.84
2022-08-16T06:35:41.521Z,51.81
2022-08-16T06:38:32.496Z,51.71
2022-08-16T06:40:56.769Z,51.76
2022-08-16T06:43:27.628Z,51.81
2022-08-16T06:45:55.276Z,51.27
2022-08-16T06:48:33.141Z,51.77
2022-08-16T06:51:06.013Z,51.73
2022-08-16T06:53:36.481Z,51.39
2022-08-16T06:56:14.312Z,51.25
2022-08-16T06:58:51.995Z,51.07
2022-08-16T07:01:44.516Z,51.33
2022-08-16T07:04:10.290Z,50.77
2022-08-16T07:06:40.423Z,50.80
2022-08-16T07:09:12.564Z,50.49
2022-08-16T07:11:47.657Z,50.20
2022-08-16T07:14:25.299Z,49.76
2022-08-16T07:16:58.263Z,49.78
2022-08-16T07:19:33.709Z,49.59
2022-08-16T07:22:37.038Z,49.28
2022-08-16T07:25:08.182Z,49.30
2022-08-16T07:27:37.146Z,49.31
2022-08-16T07:30:39.784Z,48.74
2022-08-16T07:32:57.387Z,48.88
2022-08-16T07:35:25.633Z,48.88
2022-08-16T07:37:53.262Z,48.80
2022-08-16T07:40:36.930Z,48.58
2022-08-16T07:43:08.058Z,48.27
2022-08-16T07:45:35.850Z,48.13
2022-08-16T07:48:11.552Z,48.11
2022-08-16T07:50:56.494Z,47.85
2022-08-16T07:53:30.972Z,47.66
2022-08-16T07:56:00.507Z,47.46
2022-08-16T07:58:33.795Z,46.87
2022-08-16T08:01:01.818Z,47.00
2022-08-16T08:03:35.770Z,46.73
2022-08-16T08:06:05.930Z,46.44
2022-08-16T08:08:50.702Z,46.26
2022-08-16T08:11:19.962Z,46.05
2022-08-16T08:13:50.719Z,45.70
2022-08-16T08:16:19.935Z,45.50
2022-08-16T08:18:50.442Z,45.37
2022-08-16T08:21:27.466Z,45.02
2022-08-16T08:24:15.225Z,44.73
2022-08-16T08:26:42.923Z,44.62
2022-08-16T08:29:10.073Z,44.27
2022-08-16T08:31:42.081Z,44.35
2022-08-16T08:34:09.359Z,44.13
2022-08-16T08:36:40.169Z,44.01
2022-08-16T08:39:12.634Z,43.56
2022-08-16T08:41:42.635Z,43.69
2022-08-16T08:44:29.174Z,43.21
2022-08-16T08:47:11.017Z,43.34
2022-08-16T08:49:46.901Z,42.80
2022-08-16T08:52:35.249Z,42.86
2022-08-16T08:55:10.289Z,42.30
2022-08-16T08:57:44.776Z,42.13
2022-08-16T09:00:14.634Z,42.17
2022-08-16T09:02:47.860Z,42.07
2022-08-16T09:05:22.326Z,42.11
2022-08-16T09:08:01.671Z,41.29
2022-08-16T09:10:33.763Z,41.15
2022-08-16T09:13:01.602Z,40.94
2022-08-16T09:15:32.998Z,40.73
2022-08-16T09:18:35.403Z,40.27
2022-08-16T09:21:00.073Z,40.28
2022-08-16T09:23:31.356Z,40.36
2022-08-16T09:26:44.272Z,40.29
2022-08-16T09:29:15.862Z,40.24
2022-08-16T09:31:42.944Z,40.28
2022-08-16T09:34:10.844Z,40.67
2022-08-16T09:36:46.283Z,40.65
2022-08-16T09:39:16.301Z,40.70
2022-08-16T09:41:53.580Z,40.75
2022-08-16T09:45:09.759Z,40.66
2022-08-16T09:47:11.379Z,40.21
2022-08-16T09:49:40.955Z,40.62
2022-08-16T09:52:09.850Z,40.34
2022-08-16T09:54:38.718Z,39.86
2022-08-16T09:57:12.290Z,39.97
2022-08-16T09:59:42.044Z,39.45
2022-08-16T10:02:27.101Z,39.58
2022-08-16T10:04:58.029Z,39.29
2022-08-16T10:07:44.704Z,39.73
2022-08-16T10:10:19.051Z,39.32
2022-08-16T10:13:12.599Z,38.57
2022-08-16T10:15:46.994Z,38.69
2022-08-16T10:19:02.014Z,39.02
2022-08-16T10:21:09.856Z,38.67
2022-08-16T10:23:36.681Z,38.32
2022-08-16T10:27:17.379Z,37.74
2022-08-16T10:28:52.747Z,38.00
2022-08-16T10:31:45.387Z,37.84
2022-08-16T10:34:24.017Z,37.23
2022-08-16T10:36:55.316Z,37.50
2022-08-16T10:39:22.384Z,36.91
2022-08-16T10:41:51.259Z,36.96
2022-08-16T10:44:18.115Z,36.56
2022-08-16T10:46:45.373Z,36.20
2022-08-16T10:49:16.894Z,35.80
2022-08-16T10:52:01.244Z,36.00
2022-08-16T10:54:32.042Z,35.96
2022-08-16T10:57:04.294Z,35.58
2022-08-16T10:59:45.758Z,35.21
2022-08-16T11:02:57.652Z,35.08
2022-08-16T11:05:15.066Z,35.07
2022-08-16T11:07:53.403Z,35.29
2022-08-16T11:19:04.231Z,34.74
2022-08-16T11:21:33.942Z,34.98
2022-08-16T11:24:02.207Z,35.00
2022-08-16T11:26:29.754Z,35.27
2022-08-16T11:29:14.515Z,35.54
2022-08-16T11:31:43.434Z,35.61
2022-08-16T11:34:20.862Z,35.74
2022-08-16T11:36:59.368Z,35.65
2022-08-16T11:39:32.013Z,35.17
2022-08-16T11:42:01.766Z,35.00
2022-08-16T11:44:52.313Z,34.42
2022-08-16T11:47:16.180Z,34.40
2022-08-16T11:49:43.080Z,34.55
2022-08-16T11:52:09.916Z,34.40
2022-08-16T11:54:37.563Z,34.09
2022-08-16T11:57:09.006Z,33.62
2022-08-16T11:59:40.023Z,33.81
2022-08-16T12:02:31.332Z,33.23
2022-08-16T12:04:57.230Z,32.95
2022-08-16T12:07:24.257Z,32.80
2022-08-16T12:09:53.776Z,32.63
2022-08-16T12:12:23.585Z,32.51
2022-08-16T12:14:59.371Z,32.87
2022-08-16T12:17:32.352Z,32.59
2022-08-16T12:20:18.625Z,32.79
2022-08-16T12:22:47.121Z,33.01
2022-08-16T12:25:17.881Z,32.87
2022-08-16T12:27:47.632Z,32.97
2022-08-16T12:30:27.015Z,32.51
2022-08-16T12:33:03.064Z,32.64
2022-08-16T12:35:32.563Z,32.07
2022-08-16T12:38:38.094Z,31.87
2022-08-16T12:40:55.543Z,31.35
2022-08-16T12:43:23.732Z,31.40
2022-08-16T12:45:55.181Z,30.72
2022-08-16T12:48:49.755Z,31.21
2022-08-16T12:51:24.439Z,31.38
2022-08-16T12:53:55.727Z,31.46
2022-08-16T12:56:27.840Z,30.85
2022-08-16T12:58:57.825Z,31.43
2022-08-16T13:01:31.288Z,30.74
2022-08-16T13:04:11.626Z,30.98
2022-08-16T13:06:48.409Z,30.65
2022-08-16T13:09:20.616Z,30.10
2022-08-16T13:12:21.092Z,30.33
2022-08-16T13:14:50.015Z,30.06
2022-08-16T13:17:24.041Z,29.97
2022-08-16T13:20:11.265Z,30.43
2022-08-16T13:22:44.541Z,30.66
2022-08-16T13:25:21.464Z,30.36
2022-08-16T13:28:02.987Z,30.54
2022-08-16T13:30:41.775Z,30.33
2022-08-16T13:33:16.477Z,29.59
2022-08-16T13:35:56.224Z,29.51
2022-08-16T13:38:25.545Z,29.84
2022-08-16T13:40:55.888Z,29.86
2022-08-16T13:43:27.149Z,29.39
2022-08-16T13:45:56.892Z,29.72
2022-08-16T13:48:37.084Z,29.21
2022-08-16T13:51:18.812Z,29.44
2022-08-16T13:53:59.616Z,29.01
2022-08-16T13:56:37.987Z,28.88
2022-08-16T13:59:13.963Z,29.64
2022-08-16T14:01:55.511Z,29.31
2022-08-16T14:04:36.498Z,29.44
2022-08-16T14:07:13.137Z,28.91
2022-08-16T14:09:47.390Z,29.06
2022-08-16T14:12:29.256Z,28.41
2022-08-16T14:14:58.134Z,29.07
2022-08-16T14:17:27.896Z,29.50
2022-08-16T14:19:59.968Z,29.06
2022-08-16T14:22:39.903Z,29.02
2022-08-16T14:25:16.638Z,29.08
2022-08-16T14:27:46.252Z,28.96
2022-08-16T14:30:18.984Z,29.16
2022-08-16T14:32:50.889Z,28.75
2022-08-16T14:35:36.389Z,28.52
2022-08-16T14:38:18.610Z,28.46
2022-08-16T14:40:52.647Z,28.21
2022-08-16T14:43:22.009Z,28.28
2022-08-16T14:45:50.616Z,27.76
2022-08-16T14:48:26.073Z,27.87
2022-08-16T14:50:54.745Z,28.20
2022-08-16T14:53:24.255Z,27.41
2022-08-16T14:55:51.480Z,27.56
2022-08-16T14:58:20.281Z,28.20
2022-08-16T15:01:02.258Z,28.40
2022-08-16T15:03:30.281Z,28.04
2022-08-16T15:06:01.698Z,28.11
2022-08-16T15:08:36.313Z,28.65
2022-08-16T15:11:04.606Z,29.07
2022-08-16T15:13:31.477Z,28.85
2022-08-16T15:16:02.518Z,28.54
2022-08-16T15:18:31.981Z,28.68
2022-08-16T15:21:04.649Z,29.07
2022-08-16T15:23:33.892Z,29.09
2022-08-16T15:26:03.876Z,28.59
2022-08-16T15:28:32.974Z,29.03
2022-08-16T15:31:03.681Z,28.97
2022-08-16T15:33:43.312Z,27.81
2022-08-16T15:36:18.048Z,28.85
2022-08-16T15:38:57.586Z,28.91
2022-08-16T15:41:58.290Z,29.05
2022-08-16T15:44:38.867Z,29.00
2022-08-16T15:47:18.229Z,28.82
2022-08-16T15:49:46.895Z,28.88
2022-08-16T15:52:30.353Z,29.15
2022-08-16T15:55:12.831Z,29.38
2022-08-16T15:57:51.507Z,29.60
2022-08-16T16:00:20.592Z,29.63
2022-08-16T16:02:49.530Z,29.22
2022-08-16T16:05:18.828Z,29.75
2022-08-16T16:07:56.381Z,29.35
2022-08-16T16:10:29.252Z,29.16
2022-08-16T16:13:00.758Z,29.14
2022-08-16T16:15:35.451Z,29.61
2022-08-16T16:18:05.178Z,29.25
2022-08-16T16:20:46.892Z,29.40
2022-08-16T16:23:19.421Z,29.85
2022-08-16T16:25:53.320Z,29.87
2022-08-16T16:29:06.255Z,29.87
2022-08-16T16:31:16.161Z,30.21
2022-08-16T16:33:50.448Z,30.35
2022-08-16T16:36:21.430Z,30.03
2022-08-16T16:38:50.447Z,30.52
2022-08-16T16:41:24.470Z,30.28
2022-08-16T16:43:55.706Z,30.38
2022-08-16T16:46:39.025Z,30.86
2022-08-16T16:49:11.892Z,30.38
2022-08-16T16:51:44.678Z,31.03
2022-08-16T16:54:28.109Z,30.96
2022-08-16T16:56:57.978Z,30.67
2022-08-16T16:59:28.465Z,30.73
2022-08-16T17:02:28.316Z,31.24
2022-08-16T17:04:44.062Z,31.07
2022-08-16T17:07:12.161Z,31.02
2022-08-16T17:09:41.198Z,31.30
2022-08-16T17:12:17.632Z,31.15
2022-08-16T17:14:56.058Z,30.98
2022-08-16T17:17:24.092Z,31.18
2022-08-16T17:19:51.332Z,31.44
2022-08-16T17:22:24.131Z,31.56
2022-08-16T17:25:00.532Z,31.62
2022-08-16T17:27:33.806Z,31.89
2022-08-16T17:30:17.040Z,31.42
2022-08-16T17:33:02.825Z,31.67
2022-08-16T17:35:45.592Z,31.59
2022-08-16T17:38:39.310Z,31.74
2022-08-16T17:41:12.571Z,31.90
2022-08-16T17:43:44.245Z,31.80
2022-08-16T17:46:50.553Z,32.02
2022-08-16T17:49:01.149Z,31.92
2022-08-16T17:51:28.414Z,31.79
2022-08-16T17:53:56.567Z,32.54
2022-08-16T17:56:23.464Z,32.21
2022-08-16T17:58:50.293Z,32.48
2022-08-16T18:01:25.457Z,32.59
2022-08-16T18:04:08.620Z,32.67
2022-08-16T18:06:38.035Z,33.08
2022-08-16T18:09:05.246Z,33.40
2022-08-16T18:11:40.806Z,33.89
2022-08-16T18:14:09.980Z,34.11
2022-08-16T18:16:36.931Z,34.40
2022-08-16T18:19:03.871Z,34.76
2022-08-16T18:21:48.952Z,34.95
2022-08-16T18:24:16.192Z,35.23
2022-08-16T18:26:43.037Z,35.60
2022-08-16T18:29:09.890Z,35.57
2022-08-16T18:31:37.711Z,35.85
2022-08-16T18:34:05.842Z,35.38
2022-08-16T18:36:33.314Z,35.58
2022-08-16T18:39:00.734Z,35.88
2022-08-16T18:41:30.365Z,35.62
2022-08-16T18:44:25.600Z,36.02
2022-08-16T18:46:46.327Z,35.92
2022-08-16T18:49:19.275Z,36.06
2022-08-16T18:51:46.671Z,36.00
2022-08-16T18:54:18.135Z,36.30
2022-08-16T18:56:55.743Z,36.31
2022-08-16T18:59:30.408Z,36.84
2022-08-16T19:02:03.948Z,36.49
2022-08-16T19:04:55.326Z,36.79
2022-08-16T19:07:29.682Z,36.80
2022-08-16T19:10:02.058Z,36.60
2022-08-16T19:12:38.123Z,36.87
2022-08-16T19:15:15.951Z,36.33
2022-08-16T19:17:44.171Z,36.15
2022-08-16T19:20:14.296Z,35.38
2022-08-16T19:25:47.566Z,36.10
2022-08-16T19:28:50.732Z,36.53
2022-08-16T19:31:26.247Z,36.50
2022-08-16T19:33:56.528Z,36.56
2022-08-16T19:36:30.999Z,36.95
2022-08-16T19:39:04.255Z,37.15
2022-08-16T19:41:32.391Z,37.16
2022-08-16T19:43:59.257Z,36.70
2022-08-16T19:46:26.372Z,36.43
2022-08-16T19:48:53.397Z,35.99
2022-08-16T19:51:21.877Z,35.62
2022-08-16T19:53:49.413Z,35.58
2022-08-16T19:56:16.700Z,36.04
2022-08-16T19:59:08.685Z,35.98
2022-08-16T20:01:31.649Z,35.55
2022-08-16T20:03:58.494Z,35.59
2022-08-16T20:06:38.020Z,36.24
2022-08-16T20:09:06.531Z,36.47
2022-08-16T20:11:35.520Z,37.32
2022-08-16T20:14:02.765Z,36.90
2022-08-16T20:16:29.928Z,36.27
2022-08-16T20:18:56.783Z,36.76
2022-08-16T20:21:24.207Z,36.74
2022-08-16T20:23:51.200Z,36.81
2022-08-16T20:26:18.774Z,36.33
2022-08-16T20:28:54.031Z,36.99
2022-08-16T20:31:23.663Z,37.03
2022-08-16T20:33:52.157Z,37.19
2022-08-16T20:36:19.062Z,37.48
2022-08-16T20:38:47.452Z,37.51
2022-08-16T20:41:16.719Z,37.32
2022-08-16T20:43:45.512Z,37.72
2022-08-16T20:46:13.415Z,37.59
2022-08-16T20:48:40.249Z,37.65
2022-08-16T20:51:10.416Z,37.13
2022-08-16T20:53:42.286Z,37.51
2022-08-16T20:56:11.313Z,37.56
2022-08-16T20:58:38.733Z,37.65
2022-08-16T21:01:08.475Z,37.56
2022-08-16T21:03:36.565Z,37.33
2022-08-16T21:06:05.324Z,38.07
2022-08-16T21:08:53.059Z,38.59
2022-08-16T21:11:21.545Z,38.84
2022-08-16T21:13:48.434Z,38.74
2022-08-16T21:16:16.334Z,38.31
2022-08-16T21:18:43.247Z,38.35
2022-08-16T21:21:11.987Z,38.96
2022-08-16T21:23:39.001Z,38.88
2022-08-16T21:26:10.888Z,39.16
2022-08-16T21:28:43.154Z,39.03
2022-08-16T21:31:13.071Z,39.21
2022-08-16T21:33:40.756Z,39.28
2022-08-16T21:36:08.083Z,39.44
2022-08-16T21:38:35.190Z,39.35
2022-08-16T21:41:04.814Z,39.45
2022-08-16T21:43:33.350Z,39.45
2022-08-16T21:46:06.201Z,39.37
2022-08-16T21:48:36.082Z,39.32
2022-08-16T21:51:07.584Z,39.52
2022-08-16T21:53:36.233Z,39.48
2022-08-16T21:56:05.754Z,39.67
2022-08-16T21:58:33.032Z,39.56
2022-08-16T22:01:01.298Z,39.37
2022-08-16T22:03:32.792Z,39.52
2022-08-16T22:06:13.879Z,39.77
2022-08-16T22:08:50.360Z,39.81
2022-08-16T22:11:25.574Z,40.05
2022-08-16T22:13:58.578Z,40.16
2022-08-16T22:16:33.690Z,40.02
2022-08-16T22:19:01.773Z,40.09
2022-08-16T22:21:30.236Z,40.42
2022-08-16T22:23:58.906Z,40.57
2022-08-16T22:26:38.466Z,40.92
2022-08-16T22:29:12.024Z,40.80
2022-08-16T22:31:41.849Z,40.77
2022-08-16T22:34:08.931Z,40.94
2022-08-16T22:36:37.272Z,40.64
2022-08-16T22:39:08.677Z,41.00
2022-08-16T22:41:38.353Z,40.89
2022-08-16T22:44:06.798Z,41.10
2022-08-16T22:46:36.440Z,41.25
2022-08-16T22:49:06.283Z,41.23
2022-08-16T22:51:34.552Z,41.35
2022-08-16T22:54:44.178Z,41.47
2022-08-16T22:56:48.391Z,41.40
2022-08-16T22:59:15.168Z,41.10
2022-08-16T23:01:42.393Z,41.26
2022-08-16T23:04:09.368Z,41.48
2022-08-16T23:06:36.212Z,41.56
2022-08-16T23:09:03.470Z,41.63
2022-08-16T23:11:30.253Z,41.79
2022-08-16T23:13:57.074Z,42.30
2022-08-16T23:16:33.753Z,42.04
2022-08-16T23:19:12.203Z,42.25
2022-08-16T23:21:43.840Z,42.77
2022-08-16T23:24:12.219Z,42.61
2022-08-16T23:26:46.371Z,42.92
2022-08-16T23:29:24.605Z,42.66
2022-08-16T23:31:58.013Z,42.89
2022-08-16T23:34:27.827Z,42.86
2022-08-16T23:36:55.219Z,42.85
2022-08-16T23:39:22.452Z,42.87
2022-08-16T23:41:49.377Z,43.01
2022-08-16T23:44:56.089Z,42.81
2022-08-16T23:47:05.824Z,43.00
2022-08-16T23:49:57.984Z,42.89
2022-08-16T23:52:45.675Z,42.76
2022-08-16T23:55:08.235Z,43.43
2022-08-16T23:57:35.039Z,43.62
